Time;durP1;ratioP1;P1;durP2;ratioP2;P2;SDS_P1;SDS_P2;PMS_P1;PMS_P2;Temp;Humidity;BMP_temperature;BMP_pressure;BME280_temperature;BME280_humidity;BME280_pressure;Samples;Min_cycle;Max_cycle;Signal;HPM_P1;HPM_P2
2021/01/17 00:01:33;;;;;;;16.82;9.28;;;;;;;-6.81;73.89;98411.23;2266010;79;21591;-83
2021/01/17 00:04:34;;;;;;;13.58;6.45;;;;;;;-6.90;74.25;98403.61;2265961;78;21628;-83
2021/01/17 00:07:37;;;;;;;23.10;9.30;;;;;;;-6.95;74.46;98406.00;2265930;78;21668;-83
2021/01/17 00:10:38;;;;;;;11.43;6.70;;;;;;;-7.03;74.63;98410.23;2266317;78;21973;-83
2021/01/17 00:13:40;;;;;;;8.60;6.35;;;;;;;-7.07;74.51;98412.55;2266016;78;21293;-81
2021/01/17 00:16:42;;;;;;;11.53;6.90;;;;;;;-7.14;74.40;98411.66;2266073;78;21147;-81
2021/01/17 00:19:43;;;;;;;12.25;7.45;;;;;;;-7.24;74.27;98417.20;2267783;78;21112;-78
2021/01/17 00:22:45;;;;;;;14.20;7.40;;;;;;;-7.28;74.86;98430.98;2268072;78;21262;-79
2021/01/17 00:25:47;;;;;;;10.30;7.42;;;;;;;-7.29;74.56;98429.80;2267802;78;21705;-82
2021/01/17 00:28:49;;;;;;;10.53;6.60;;;;;;;-7.33;75.15;98432.92;2267075;79;21258;-83
2021/01/17 00:31:51;;;;;;;15.13;7.95;;;;;;;-7.34;74.85;98438.09;2266154;78;21265;-81
2021/01/17 00:34:53;;;;;;;7.17;5.35;;;;;;;-7.36;75.25;98444.52;2265622;78;21127;-80
2021/01/17 00:37:54;;;;;;;9.93;7.45;;;;;;;-7.39;74.51;98434.51;2265133;79;21329;-83
2021/01/17 00:40:56;;;;;;;14.93;7.50;;;;;;;-7.45;74.90;98439.44;2262880;78;21289;-81
2021/01/17 00:43:57;;;;;;;13.70;7.00;;;;;;;-7.50;74.96;98441.81;2263057;79;21278;-81
2021/01/17 00:46:59;;;;;;;18.62;8.53;;;;;;;-7.62;74.48;98443.23;2262894;78;21571;-83
2021/01/17 00:50:00;;;;;;;18.75;9.63;;;;;;;-7.72;74.78;98449.66;2262987;78;21111;-82
2021/01/17 00:53:02;;;;;;;11.93;7.67;;;;;;;-7.78;74.92;98458.38;2263179;78;21717;-83
2021/01/17 00:56:05;;;;;;;12.40;7.22;;;;;;;-7.81;74.94;98451.35;2263220;79;21724;-83
2021/01/17 00:59:06;;;;;;;15.88;10.10;;;;;;;-7.88;75.08;98456.34;2263355;78;21159;-83
2021/01/17 01:02:08;;;;;;;17.15;9.30;;;;;;;-7.93;75.25;98462.92;2263573;79;21286;-86
2021/01/17 01:05:11;;;;;;;13.62;7.42;;;;;;;-7.93;75.38;98475.63;2264651;78;21092;-82
2021/01/17 01:08:13;;;;;;;16.70;8.80;;;;;;;-7.92;75.07;98478.99;2264184;78;21104;-79
2021/01/17 01:11:14;;;;;;;18.15;10.43;;;;;;;-7.91;75.12;98481.91;2264675;78;21516;-83
2021/01/17 01:14:16;;;;;;;13.85;7.80;;;;;;;-7.95;74.89;98489.28;2264805;79;21151;-77
2021/01/17 01:17:18;;;;;;;16.90;9.38;;;;;;;-8.04;74.88;98496.45;2264257;78;21175;-83
2021/01/17 01:20:19;;;;;;;14.05;7.75;;;;;;;-8.12;74.90;98491.34;2263246;78;21159;-82
2021/01/17 01:23:21;;;;;;;17.55;9.93;;;;;;;-8.14;75.06;98494.38;2263480;78;21278;-83
2021/01/17 01:26:23;;;;;;;15.25;7.80;;;;;;;-8.23;75.17;98496.05;2262747;78;21088;-82
2021/01/17 01:29:24;;;;;;;18.75;10.13;;;;;;;-8.32;75.21;98501.09;2262748;78;21147;-83
2021/01/17 01:32:27;;;;;;;22.15;10.38;;;;;;;-8.37;75.51;98501.34;2262858;79;21270;-83
2021/01/17 01:35:29;;;;;;;13.72;8.80;;;;;;;-8.40;75.68;98509.55;2263156;79;21318;-82
2021/01/17 01:38:30;;;;;;;18.73;10.40;;;;;;;-8.44;75.67;98519.44;2261324;79;21158;-83
2021/01/17 01:41:32;;;;;;;15.35;8.23;;;;;;;-8.49;75.76;98508.23;2258625;79;21301;-83
2021/01/17 01:44:34;;;;;;;16.73;9.78;;;;;;;-8.51;75.89;98518.88;2258509;79;21749;-83
2021/01/17 01:47:36;;;;;;;22.42;10.82;;;;;;;-8.52;75.99;98511.33;2258364;79;21606;-84
2021/01/17 01:50:38;;;;;;;13.35;6.50;;;;;;;-8.54;76.14;98519.02;2258550;79;21293;-84
2021/01/17 01:53:40;;;;;;;22.93;12.10;;;;;;;-8.56;76.27;98511.09;2258618;78;21733;-85
2021/01/17 01:56:42;;;;;;;23.87;12.50;;;;;;;-8.61;76.15;98514.63;2258876;79;21793;-84
2021/01/17 01:59:43;;;;;;;19.60;9.08;;;;;;;-8.58;76.17;98526.40;2258633;79;21171;-84
2021/01/17 02:02:45;;;;;;;20.85;11.83;;;;;;;-8.58;76.16;98518.78;2259789;79;21278;-80
2021/01/17 02:05:47;;;;;;;26.45;12.28;;;;;;;-8.65;76.35;98520.75;2260215;79;21092;-79
2021/01/17 02:08:49;;;;;;;27.50;12.23;;;;;;;-8.67;76.24;98517.45;2259374;79;21138;-82
2021/01/17 02:11:51;;;;;;;24.35;12.80;;;;;;;-8.65;76.32;98518.66;2259008;79;21136;-84
2021/01/17 02:14:53;;;;;;;23.42;12.43;;;;;;;-8.61;76.28;98529.05;2259274;79;21136;-78
2021/01/17 02:17:55;;;;;;;24.40;13.65;;;;;;;-8.61;76.17;98528.59;2259308;79;21301;-81
2021/01/17 02:20:57;;;;;;;29.65;13.72;;;;;;;-8.60;76.23;98532.78;2259424;79;21132;-80
2021/01/17 02:23:58;;;;;;;21.42;11.53;;;;;;;-8.56;76.25;98541.56;2259336;79;21269;-82
2021/01/17 02:27:00;;;;;;;32.95;15.88;;;;;;;-8.57;76.30;98532.30;2259376;79;21301;-82
2021/01/17 02:30:01;;;;;;;31.23;16.85;;;;;;;-8.53;76.32;98537.61;2258744;79;21150;-84
2021/01/17 02:33:03;;;;;;;40.40;17.48;;;;;;;-8.47;76.34;98540.72;2259410;79;21274;-85
2021/01/17 02:36:05;;;;;;;30.20;16.70;;;;;;;-8.46;76.06;98534.75;2259398;79;21147;-83
2021/01/17 02:39:06;;;;;;;34.33;16.23;;;;;;;-8.43;75.68;98545.22;2262648;79;21166;-83
2021/01/17 02:42:08;;;;;;;23.15;11.05;;;;;;;-8.48;75.35;98550.95;2266026;79;21143;-83
2021/01/17 02:45:10;;;;;;;41.35;19.52;;;;;;;-8.52;75.25;98551.95;2265773;79;21281;-86
2021/01/17 02:48:12;;;;;;;28.73;14.95;;;;;;;-8.53;75.43;98549.03;2266324;79;21159;-85
2021/01/17 02:51:13;;;;;;;22.50;12.37;;;;;;;-8.54;75.33;98557.55;2266027;79;21289;-85
2021/01/17 02:54:15;;;;;;;30.88;13.60;;;;;;;-8.57;75.36;98562.77;2266300;79;21126;-85
2021/01/17 02:57:17;;;;;;;30.20;12.55;;;;;;;-8.61;74.72;98562.05;2266619;79;21151;-84
2021/01/17 03:00:19;;;;;;;30.32;16.20;;;;;;;-8.71;74.53;98560.34;2266775;79;21273;-85
2021/01/17 03:03:20;;;;;;;27.82;14.98;;;;;;;-8.78;74.79;98570.36;2266112;79;21309;-85
2021/01/17 03:06:26;;;;;;;39.55;17.35;;;;;;;-8.84;74.58;98562.19;2265742;79;21150;-85
2021/01/17 03:09:27;;;;;;;29.07;14.23;;;;;;;-8.85;74.93;98570.70;2266524;79;21249;-86
2021/01/17 03:12:28;;;;;;;30.27;16.87;;;;;;;-8.92;74.74;98577.72;2266042;79;21164;-82
2021/01/17 03:15:30;;;;;;;33.63;17.80;;;;;;;-8.95;74.94;98572.78;2267418;79;21182;-79
2021/01/17 03:18:32;;;;;;;32.90;18.80;;;;;;;-8.97;74.92;98575.36;2268081;79;21159;-80
2021/01/17 03:21:34;;;;;;;29.67;16.90;;;;;;;-9.01;74.99;98580.63;2267048;79;21265;-83
2021/01/17 03:24:36;;;;;;;28.90;16.57;;;;;;;-8.97;74.86;98575.80;2265626;79;21606;-84
2021/01/17 03:27:37;;;;;;;29.55;14.70;;;;;;;-9.00;74.47;98579.73;2265692;79;21159;-85
2021/01/17 03:30:39;;;;;;;36.30;19.15;;;;;;;-9.04;74.74;98574.42;2265567;79;21169;-83
2021/01/17 03:33:43;;;;;;;47.93;19.95;;;;;;;-8.98;75.17;98572.89;2265505;79;21136;-83
2021/01/17 03:36:44;;;;;;;41.75;20.20;;;;;;;-8.92;74.91;98575.19;2265532;79;21135;-84
2021/01/17 03:39:47;;;;;;;28.02;13.08;;;;;;;-8.90;74.72;98574.67;2261314;79;21112;-84
2021/01/17 03:42:48;;;;;;;34.25;16.70;;;;;;;-8.92;74.44;98576.02;2258339;79;21150;-83
2021/01/17 03:45:50;;;;;;;34.60;17.02;;;;;;;-8.96;74.45;98583.37;2258752;79;21282;-81
2021/01/17 03:48:52;;;;;;;23.25;12.00;;;;;;;-8.98;74.49;98586.84;2258351;79;21128;-82
2021/01/17 03:51:53;;;;;;;30.02;15.28;;;;;;;-9.03;74.05;98587.04;2258187;79;21155;-83
2021/01/17 03:54:55;;;;;;;26.30;16.65;;;;;;;-9.18;73.43;98586.37;2258424;79;21725;-82
2021/01/17 03:57:57;;;;;;;31.10;14.55;;;;;;;-9.27;73.81;98590.09;2259079;79;21567;-78
2021/01/17 04:00:59;;;;;;;29.65;14.75;;;;;;;-9.28;73.78;98599.84;2259670;79;21828;-82
2021/01/17 04:04:01;;;;;;;32.45;15.85;;;;;;;-9.32;73.32;98596.23;2258608;79;21674;-82
2021/01/17 04:07:03;;;;;;;35.63;16.15;;;;;;;-9.34;73.38;98592.47;2258668;79;21575;-83
2021/01/17 04:10:05;;;;;;;31.30;15.60;;;;;;;-9.32;73.37;98587.36;2258879;79;21270;-83
2021/01/17 04:13:07;;;;;;;28.40;13.93;;;;;;;-9.31;73.44;98596.63;2258444;79;21135;-83
2021/01/17 04:16:08;;;;;;;26.27;14.33;;;;;;;-9.35;72.54;98596.34;2258768;79;21704;-82
2021/01/17 04:19:10;;;;;;;23.00;12.75;;;;;;;-9.40;72.61;98604.13;2258356;79;21159;-83
2021/01/17 04:22:12;;;;;;;27.80;13.93;;;;;;;-9.47;71.84;98606.06;2258497;79;21298;-83
2021/01/17 04:25:14;;;;;;;28.27;14.18;;;;;;;-9.59;71.81;98616.67;2259121;79;21673;-84
2021/01/17 04:28:16;;;;;;;32.58;16.10;;;;;;;-9.74;71.95;98617.23;2259032;79;21294;-83
2021/01/17 04:31:18;;;;;;;33.95;15.18;;;;;;;-9.84;71.92;98637.02;2258604;79;21155;-82
2021/01/17 04:34:22;;;;;;;36.08;15.35;;;;;;;-9.91;72.13;98636.84;2258741;79;21269;-83
2021/01/17 04:37:23;;;;;;;36.25;15.68;;;;;;;-9.92;72.65;98641.52;2258540;79;21623;-80
2021/01/17 04:40:26;;;;;;;30.05;13.70;;;;;;;-9.96;72.11;98646.77;2263580;79;21186;-82
2021/01/17 04:43:27;;;;;;;30.32;13.30;;;;;;;-10.05;72.29;98650.45;2265776;79;21801;-80
2021/01/17 04:46:29;;;;;;;23.77;12.13;;;;;;;-10.12;72.25;98644.76;2265591;79;21161;-81
2021/01/17 04:49:30;;;;;;;39.65;17.87;;;;;;;-10.16;72.67;98652.05;2265802;79;21147;-85
2021/01/17 04:52:32;;;;;;;31.73;13.48;;;;;;;-10.20;72.88;98657.30;2266035;79;21151;-84
2021/01/17 04:55:34;;;;;;;33.35;14.85;;;;;;;-10.26;72.74;98662.14;2266503;79;21160;-77
2021/01/17 04:58:35;;;;;;;33.98;14.65;;;;;;;-10.32;72.94;98657.31;2266071;79;21127;-86
2021/01/17 05:01:37;;;;;;;35.35;17.15;;;;;;;-10.35;73.24;98665.81;2265853;79;21242;-85
2021/01/17 05:04:39;;;;;;;37.60;17.25;;;;;;;-10.33;73.40;98673.38;2266424;79;21116;-84
2021/01/17 05:07:41;;;;;;;19.87;10.45;;;;;;;-10.30;73.45;98678.34;2265930;79;21124;-86
2021/01/17 05:10:42;;;;;;;38.78;17.92;;;;;;;-10.26;73.36;98677.78;2266300;79;21286;-84
2021/01/17 05:13:44;;;;;;;40.55;19.92;;;;;;;-10.25;73.32;98680.70;2266408;79;21293;-83
2021/01/17 05:16:45;;;;;;;37.98;18.07;;;;;;;-10.16;73.54;98683.72;2235633;79;21289;-83
2021/01/17 05:19:47;;;;;;;35.45;17.00;;;;;;;-10.10;73.25;98677.19;2265842;79;21126;-84
2021/01/17 05:22:49;;;;;;;38.25;18.07;;;;;;;-10.05;73.22;98684.64;2265645;79;21663;-82
2021/01/17 05:25:50;;;;;;;56.40;23.40;;;;;;;-9.99;73.26;98689.48;2265468;79;21142;-81
2021/01/17 05:28:52;;;;;;;53.38;24.07;;;;;;;-10.00;73.29;98690.36;2265886;79;21289;-82
2021/01/17 05:31:53;;;;;;;42.83;22.27;;;;;;;-9.94;73.36;98703.27;2265788;79;21157;-82
2021/01/17 05:34:55;;;;;;;71.62;30.17;;;;;;;-9.90;73.43;98708.16;2265833;79;21554;-82
2021/01/17 05:37:57;;;;;;;48.52;23.73;;;;;;;-9.83;73.48;98708.34;2266299;79;21249;-82
2021/01/17 05:40:58;;;;;;;49.08;22.55;;;;;;;-9.73;73.50;98704.22;2260252;79;21320;-83
2021/01/17 05:44:00;;;;;;;34.20;14.40;;;;;;;-9.74;73.19;98708.47;2259523;79;21281;-83
2021/01/17 05:47:01;;;;;;;36.03;18.80;;;;;;;-9.68;73.12;98709.97;2261087;79;21285;-79
2021/01/17 05:50:03;;;;;;;40.92;20.12;;;;;;;-9.72;73.04;98715.56;2259885;79;21304;-85
2021/01/17 05:53:05;;;;;;;38.75;18.07;;;;;;;-9.76;73.39;98721.64;2258686;79;21289;-82
2021/01/17 05:56:06;;;;;;;39.60;20.57;;;;;;;-9.78;73.09;98728.47;2258741;79;21159;-83
2021/01/17 05:59:08;;;;;;;40.60;20.82;;;;;;;-9.77;73.26;98722.52;2258939;79;21166;-86
2021/01/17 06:02:09;;;;;;;44.63;19.32;;;;;;;-9.78;73.12;98727.20;2259545;79;21274;-85
2021/01/17 06:05:11;;;;;;;41.13;18.67;;;;;;;-9.76;73.29;98726.70;2226863;79;21130;-86
2021/01/17 06:08:13;;;;;;;39.92;19.85;;;;;;;-9.75;73.32;98726.65;2259612;79;21289;-83
2021/01/17 06:11:14;;;;;;;42.50;20.52;;;;;;;-9.70;73.13;98732.81;2260098;79;21298;-78
2021/01/17 06:14:18;;;;;;;42.65;19.82;;;;;;;-9.70;73.11;98738.31;2259583;79;21586;-80
2021/01/17 06:17:20;;;;;;;37.35;17.95;;;;;;;-9.72;73.17;98742.63;2260580;79;21302;-81
2021/01/17 06:20:22;;;;;;;43.25;21.37;;;;;;;-9.73;72.89;98750.67;2258643;79;21139;-84
2021/01/17 06:23:23;;;;;;;50.88;24.63;;;;;;;-9.74;73.16;98752.81;2258757;79;21100;-83
2021/01/17 06:26:24;;;;;;;49.45;23.42;;;;;;;-9.68;73.29;98756.42;2258539;79;21566;-83
2021/01/17 06:29:26;;;;;;;57.98;27.42;;;;;;;-9.56;73.13;98757.69;2259633;79;21172;-82
2021/01/17 06:32:28;;;;;;;55.95;23.57;;;;;;;-9.54;72.92;98769.42;2260353;79;21721;-81
2021/01/17 06:35:29;;;;;;;57.75;33.67;;;;;;;-9.55;72.60;98779.19;2259525;79;21289;-80
2021/01/17 06:38:31;;;;;;;44.45;24.07;;;;;;;-9.61;72.53;98788.25;2260442;79;21282;-83
2021/01/17 06:41:33;;;;;;;43.73;20.72;;;;;;;-9.64;72.20;98798.52;2258708;79;21285;-82
2021/01/17 06:44:35;;;;;;;41.68;21.50;;;;;;;-9.66;71.99;98808.32;2258312;79;21122;-80
2021/01/17 06:47:36;;;;;;;41.73;21.82;;;;;;;-9.70;71.88;98801.69;2258301;79;21105;-81
2021/01/17 06:50:38;;;;;;;42.25;21.87;;;;;;;-9.67;72.11;98807.50;2258607;79;21714;-80
2021/01/17 06:53:39;;;;;;;29.75;16.97;;;;;;;-9.54;72.05;98811.25;2258971;79;21146;-81
2021/01/17 06:56:41;;;;;;;37.20;19.65;;;;;;;-9.53;71.30;98809.11;2259416;79;21129;-80
2021/01/17 06:59:42;;;;;;;36.10;17.73;;;;;;;-9.46;72.17;98808.02;2259123;79;21578;-81
2021/01/17 07:02:44;;;;;;;39.10;20.60;;;;;;;-9.40;71.58;98805.72;2258515;79;21242;-82
2021/01/17 07:05:45;;;;;;;54.42;24.50;;;;;;;-9.46;71.51;98814.80;2258832;79;21257;-83
2021/01/17 07:08:48;;;;;;;42.08;20.50;;;;;;;-9.43;71.47;98811.33;2259155;79;21301;-82
2021/01/17 07:11:50;;;;;;;41.20;20.92;;;;;;;-9.38;71.49;98820.88;2259289;79;21278;-78
2021/01/17 07:14:52;;;;;;;40.70;19.02;;;;;;;-9.40;69.42;98823.47;2258984;79;21296;-81
2021/01/17 07:17:53;;;;;;;52.45;24.30;;;;;;;-9.50;68.35;98829.74;2259584;79;21277;-82
2021/01/17 07:20:55;;;;;;;39.03;20.30;;;;;;;-9.44;69.91;98836.30;2259113;79;21257;-82
2021/01/17 07:23:56;;;;;;;50.20;25.95;;;;;;;-9.40;68.99;98840.40;2259147;79;21240;-82
2021/01/17 07:26:58;;;;;;;32.60;15.58;;;;;;;-9.33;69.47;98850.70;2259110;79;21154;-81
2021/01/17 07:29:59;;;;;;;50.55;22.27;;;;;;;-9.25;68.55;98844.92;2258767;79;21133;-80
2021/01/17 07:33:01;;;;;;;50.92;24.57;;;;;;;-9.29;69.17;98854.36;2258282;79;21540;-83
2021/01/17 07:36:03;;;;;;;52.83;28.45;;;;;;;-9.19;69.69;98848.52;2258568;79;21281;-82
2021/01/17 07:39:07;;;;;;;44.77;21.80;;;;;;;-9.09;69.60;98860.44;2258537;79;21131;-82
2021/01/17 07:42:09;;;;;;;58.55;29.57;;;;;;;-9.12;68.83;98857.58;2265234;79;21614;-81
2021/01/17 07:45:10;;;;;;;60.67;29.23;;;;;;;-9.01;69.20;98866.91;2265274;79;21646;-81
2021/01/17 07:48:12;;;;;;;47.25;20.95;;;;;;;-8.72;69.43;98868.39;2265243;79;21759;-82
2021/01/17 07:51:14;;;;;;;45.85;23.62;;;;;;;-8.60;68.50;98867.94;2265225;78;21186;-79
2021/01/17 07:54:17;;;;;;;55.38;25.57;;;;;;;-8.67;68.36;98877.95;2265616;79;21128;-81
2021/01/17 07:57:19;;;;;;;47.20;23.12;;;;;;;-8.64;68.92;98873.20;2265308;79;21181;-82
2021/01/17 08:00:21;;;;;;;41.92;20.00;;;;;;;-8.54;68.41;98874.95;2265819;79;21265;-83
2021/01/17 08:03:23;;;;;;;60.80;24.95;;;;;;;-8.60;68.37;98862.03;2265763;79;21269;-82
2021/01/17 08:06:24;;;;;;;90.53;38.92;;;;;;;-8.52;68.42;98873.17;2265863;79;21277;-81
2021/01/17 08:09:26;;;;;;;89.28;37.38;;;;;;;-8.44;68.66;98873.28;2265564;79;21301;-81
2021/01/17 08:12:28;;;;;;;76.87;32.80;;;;;;;-8.28;68.21;98876.48;2265472;79;21144;-84
2021/01/17 08:15:30;;;;;;;40.55;21.65;;;;;;;-8.28;68.03;98880.30;2265421;79;21637;-82
2021/01/17 08:18:32;;;;;;;46.18;22.48;;;;;;;-8.27;67.96;98879.41;2265766;79;21159;-82
2021/01/17 08:21:33;;;;;;;53.85;27.00;;;;;;;-8.17;67.58;98873.91;2265398;79;21665;-83
2021/01/17 08:24:38;;;;;;;56.08;26.62;;;;;;;-8.18;67.62;98887.51;2265416;79;21305;-83
2021/01/17 08:27:40;;;;;;;45.28;22.15;;;;;;;-8.17;68.54;98885.34;2266050;79;21511;-83
2021/01/17 08:30:44;;;;;;;38.20;18.40;;;;;;;-7.85;68.42;98890.91;2265443;79;21140;-83
2021/01/17 08:33:45;;;;;;;36.42;18.67;;;;;;;-7.75;65.28;98894.73;2265896;79;21304;-81
2021/01/17 08:36:47;;;;;;;34.98;18.02;;;;;;;-7.71;65.50;98898.80;2265791;79;21155;-81
2021/01/17 08:39:51;;;;;;;40.90;21.07;;;;;;;-7.58;66.01;98907.61;2265530;79;21155;-79
2021/01/17 08:42:54;;;;;;;41.92;20.00;;;;;;;-7.34;66.15;98914.66;2265659;79;21170;-80
2021/01/17 08:45:57;;;;;;;38.58;19.73;;;;;;;-7.17;65.66;98915.25;2265490;79;21281;-80
2021/01/17 08:48:58;;;;;;;43.17;20.55;;;;;;;-7.16;64.92;98916.45;2265906;79;21127;-76
2021/01/17 08:52:01;;;;;;;40.52;20.55;;;;;;;-7.04;64.89;98935.91;2265983;79;21295;-79
2021/01/17 08:55:02;;;;;;;37.80;17.95;;;;;;;-6.91;65.21;98932.80;2266787;79;21289;-80
2021/01/17 08:58:04;;;;;;;42.43;20.70;;;;;;;-6.55;65.07;98936.38;2266140;79;21721;-81
2021/01/17 09:01:06;;;;;;;42.50;20.55;;;;;;;-6.45;64.57;98937.17;2265168;79;21146;-82
2021/01/17 09:04:08;;;;;;;39.53;19.92;;;;;;;-6.37;63.86;98947.03;2265965;79;21332;-81
2021/01/17 09:07:10;;;;;;;35.55;19.57;;;;;;;-6.36;64.27;98947.41;2266059;79;21292;-78
2021/01/17 09:10:12;;;;;;;40.60;19.23;;;;;;;-6.33;63.43;98954.45;2266071;79;21674;-79
2021/01/17 09:13:14;;;;;;;44.23;20.80;;;;;;;-6.32;64.06;98953.55;2265231;79;21321;-80
2021/01/17 09:16:15;;;;;;;43.23;21.15;;;;;;;-6.19;63.01;98956.40;2265346;79;21162;-79
2021/01/17 09:19:17;;;;;;;38.33;20.77;;;;;;;-6.21;62.70;98959.92;2265511;79;21265;-79
2021/01/17 09:22:19;;;;;;;42.55;20.45;;;;;;;-6.32;63.16;98970.12;2265218;79;21171;-78
2021/01/17 09:25:20;;;;;;;36.48;20.02;;;;;;;-6.22;63.08;98974.36;2265093;79;21138;-80
2021/01/17 09:28:22;;;;;;;37.00;18.25;;;;;;;-6.21;63.15;98975.22;2265584;79;21313;-79
2021/01/17 09:31:24;;;;;;;63.20;31.17;;;;;;;-6.26;62.23;98975.85;2265093;79;21131;-79
2021/01/17 09:34:25;;;;;;;47.48;23.42;;;;;;;-6.35;61.69;98986.00;2265120;79;21142;-81
2021/01/17 09:37:28;;;;;;;49.13;25.45;;;;;;;-6.51;61.24;98987.11;2265062;79;21139;-81
2021/01/17 09:40:30;;;;;;;36.68;19.45;;;;;;;-6.71;60.63;98987.14;2265364;79;21610;-78
2021/01/17 09:43:31;;;;;;;45.03;22.62;;;;;;;-6.78;60.65;98982.75;2265125;79;21158;-80
2021/01/17 09:46:33;;;;;;;34.40;16.12;;;;;;;-6.86;62.40;98984.78;2265116;79;21833;-77
2021/01/17 09:49:35;;;;;;;39.35;19.62;;;;;;;-6.87;60.07;98986.50;2265442;79;21146;-78
2021/01/17 09:52:36;;;;;;;39.45;22.80;;;;;;;-6.91;60.97;98987.98;2265078;79;21255;-78
2021/01/17 09:55:38;;;;;;;55.75;27.87;;;;;;;-6.91;61.47;98990.53;2265109;79;21174;-80
2021/01/17 09:58:40;;;;;;;39.75;19.85;;;;;;;-6.69;61.14;98993.81;2265564;79;21594;-79
2021/01/17 10:01:42;;;;;;;41.77;20.35;;;;;;;-6.73;60.30;98993.58;2265566;79;21296;-80
2021/01/17 10:04:43;;;;;;;38.35;18.73;;;;;;;-6.75;60.91;98999.19;2265047;79;21159;-80
2021/01/17 10:07:45;;;;;;;45.08;22.07;;;;;;;-6.73;60.37;98990.20;2265397;79;21678;-79
2021/01/17 10:10:47;;;;;;;43.00;21.37;;;;;;;-6.64;60.22;98994.91;2265446;79;21135;-79
2021/01/17 10:13:48;;;;;;;48.02;23.90;;;;;;;-6.68;59.18;98987.83;2265034;78;21146;-79
2021/01/17 10:16:50;;;;;;;36.03;19.02;;;;;;;-6.72;59.87;98988.86;2264924;79;21613;-79
2021/01/17 10:19:52;;;;;;;44.53;23.35;;;;;;;-6.52;60.13;98989.73;2265155;79;21139;-80
2021/01/17 10:22:54;;;;;;;47.33;22.05;;;;;;;-6.22;60.03;98988.37;2265119;79;21634;-79
2021/01/17 10:25:55;;;;;;;37.08;20.75;;;;;;;-6.04;60.29;98986.28;2265144;79;21174;-79
2021/01/17 10:28:57;;;;;;;39.65;20.70;;;;;;;-5.88;60.75;98992.77;2265321;79;21562;-80
2021/01/17 10:31:59;;;;;;;72.78;35.28;;;;;;;-5.56;60.57;99001.50;2265260;79;21733;-82
2021/01/17 10:35:01;;;;;;;43.70;23.95;;;;;;;-5.43;60.07;99003.01;2265529;79;21131;-80
2021/01/17 10:38:03;;;;;;;45.98;22.48;;;;;;;-5.37;58.83;99000.63;2266067;79;21712;-82
2021/01/17 10:41:05;;;;;;;40.25;21.35;;;;;;;-5.41;59.51;99009.31;2266022;79;21273;-77
2021/01/17 10:44:07;;;;;;;41.13;22.07;;;;;;;-5.38;56.25;99012.56;2266772;79;21277;-81
2021/01/17 10:47:08;;;;;;;44.30;23.50;;;;;;;-5.57;58.49;99006.23;2265994;79;21297;-83
2021/01/17 10:50:10;;;;;;;44.20;22.00;;;;;;;-5.39;59.33;99005.81;2265625;79;21143;-80
2021/01/17 10:53:12;;;;;;;43.13;23.15;;;;;;;-5.15;59.75;99007.17;2266587;79;21293;-81
2021/01/17 10:56:14;;;;;;;44.48;20.57;;;;;;;-4.95;59.53;99002.36;2265975;79;21262;-82
2021/01/17 10:59:16;;;;;;;43.65;23.80;;;;;;;-4.89;58.69;99017.40;2265698;79;21178;-83
2021/01/17 11:02:17;;;;;;;62.73;31.87;;;;;;;-5.07;58.60;99014.92;2266344;79;21273;-85
2021/01/17 11:05:19;;;;;;;52.85;28.05;;;;;;;-5.01;59.16;99019.73;2265664;79;21289;-82
2021/01/17 11:08:21;;;;;;;54.67;27.00;;;;;;;-4.79;59.50;99029.72;2265358;79;21665;-82
2021/01/17 11:11:23;;;;;;;49.50;25.45;;;;;;;-4.76;59.08;99025.27;2265886;79;21139;-84
2021/01/17 11:14:25;;;;;;;49.80;25.02;;;;;;;-4.62;59.40;99022.05;2266556;79;21295;-84
2021/01/17 11:17:27;;;;;;;53.30;26.85;;;;;;;-4.50;58.80;99016.76;2265727;79;21143;-81
2021/01/17 11:20:29;;;;;;;66.77;32.40;;;;;;;-4.40;58.89;99017.94;2265427;79;21546;-80
2021/01/17 11:23:31;;;;;;;82.10;36.90;;;;;;;-4.37;58.80;99021.64;2264880;79;21113;-80
2021/01/17 11:26:33;;;;;;;194.77;78.45;;;;;;;-4.32;58.53;99023.03;2265306;79;21262;-79
2021/01/17 11:29:35;;;;;;;121.77;52.80;;;;;;;-4.28;57.79;99026.28;2265042;79;21765;-80
2021/01/17 11:32:36;;;;;;;166.15;60.33;;;;;;;-4.31;57.63;99027.70;2265360;79;21296;-80
2021/01/17 11:35:38;;;;;;;70.03;31.25;;;;;;;-4.24;57.93;99030.77;2265043;79;21162;-81
2021/01/17 11:38:41;;;;;;;209.22;72.40;;;;;;;-4.13;57.62;99031.03;2264641;79;21907;-80
2021/01/17 11:41:43;;;;;;;55.33;27.37;;;;;;;-4.25;56.99;99026.11;2263289;79;21279;-80
2021/01/17 11:44:44;;;;;;;45.60;21.45;;;;;;;-4.49;57.10;99024.34;2262098;79;21291;-80
2021/01/17 11:47:46;;;;;;;47.10;24.87;;;;;;;-4.73;56.49;99023.04;2262495;79;21288;-79
2021/01/17 11:50:48;;;;;;;49.50;23.40;;;;;;;-4.99;56.86;99017.48;2262143;79;21301;-81
2021/01/17 11:53:50;;;;;;;46.75;27.15;;;;;;;-5.07;56.83;99013.19;2262124;79;21290;-81
2021/01/17 11:56:52;;;;;;;42.95;24.50;;;;;;;-5.23;57.39;99030.97;2262126;79;21594;-81
2021/01/17 11:59:53;;;;;;;42.80;21.77;;;;;;;-5.08;57.40;99028.14;2262098;79;21294;-81
2021/01/17 12:02:55;;;;;;;44.65;23.55;;;;;;;-5.20;55.72;99024.91;2262242;79;21285;-81
2021/01/17 12:05:57;;;;;;;45.08;22.42;;;;;;;-5.44;56.78;99029.44;2262056;79;21135;-79
2021/01/17 12:08:59;;;;;;;35.70;19.87;;;;;;;-5.49;56.69;99032.64;2262077;79;21279;-81
2021/01/17 12:12:00;;;;;;;43.08;21.77;;;;;;;-5.57;55.54;99027.09;2262161;79;21286;-81
2021/01/17 12:15:02;;;;;;;40.52;22.50;;;;;;;-5.79;56.82;99029.33;2262060;79;21312;-81
2021/01/17 12:18:04;;;;;;;44.15;20.82;;;;;;;-5.68;57.24;99039.04;2262106;79;21760;-81
2021/01/17 12:21:06;;;;;;;49.03;23.15;;;;;;;-5.63;57.64;99028.19;2262366;79;21162;-81
2021/01/17 12:24:07;;;;;;;50.17;23.12;;;;;;;-5.55;56.64;99024.84;2262256;79;21277;-80
2021/01/17 12:27:09;;;;;;;61.85;29.52;;;;;;;-5.59;57.35;99030.14;2263094;79;21155;-80
2021/01/17 12:30:10;;;;;;;55.48;23.47;;;;;;;-5.77;57.40;99026.25;2262586;79;21257;-80
2021/01/17 12:33:12;;;;;;;62.30;27.70;;;;;;;-5.94;57.39;99033.90;2263275;79;21128;-81
2021/01/17 12:36:14;;;;;;;59.08;28.57;;;;;;;-5.96;57.57;99040.77;2262872;79;21301;-79
2021/01/17 12:39:16;;;;;;;57.05;26.42;;;;;;;-5.95;57.52;99039.04;2263894;79;21297;-79
2021/01/17 12:42:19;;;;;;;67.75;29.32;;;;;;;-6.00;57.40;99043.53;2263249;79;21757;-78
2021/01/17 12:45:21;;;;;;;55.40;25.52;;;;;;;-6.05;58.04;99041.17;2263224;79;21134;-80
2021/01/17 12:48:22;;;;;;;44.18;21.25;;;;;;;-6.16;57.12;99044.20;2201856;81;21136;-80
2021/01/17 12:51:24;;;;;;;55.50;26.17;;;;;;;-6.39;56.70;99052.03;2201274;81;21300;-80
2021/01/17 12:54:30;;;;;;;56.33;24.87;;;;;;;-6.56;57.62;99045.55;2163771;82;21174;-81
2021/01/17 12:57:33;;;;;;;44.42;21.75;;;;;;;-6.71;57.50;99052.91;2201610;81;21281;-80
2021/01/17 13:00:35;;;;;;;49.10;23.55;;;;;;;-6.83;57.19;99059.80;2164281;82;21158;-79
2021/01/17 13:03:37;;;;;;;53.28;27.87;;;;;;;-6.88;57.38;99058.70;2201853;81;21175;-83
2021/01/17 13:06:39;;;;;;;64.27;27.55;;;;;;;-6.97;57.50;99060.78;2164576;82;21157;-79
2021/01/17 13:09:41;;;;;;;83.95;34.10;;;;;;;-7.04;57.67;99060.23;2202663;81;21759;-78
2021/01/17 13:12:43;;;;;;;55.28;24.98;;;;;;;-7.05;58.14;99069.17;2164915;82;21281;-77
2021/01/17 13:15:44;;;;;;;60.10;27.45;;;;;;;-7.09;58.22;99067.66;2202436;81;21292;-79
2021/01/17 13:18:46;;;;;;;58.02;26.45;;;;;;;-7.23;58.25;99079.63;2164827;82;21710;-79
2021/01/17 13:21:48;;;;;;;51.70;24.10;;;;;;;-7.23;58.21;99079.63;2202798;81;21293;-78
2021/01/17 13:24:50;;;;;;;43.00;22.32;;;;;;;-7.23;58.43;99088.54;2165021;82;21316;-78
2021/01/17 13:27:52;;;;;;;40.38;20.95;;;;;;;-7.30;58.57;99085.87;2202631;81;21328;-78
2021/01/17 13:30:54;;;;;;;47.10;23.60;;;;;;;-7.39;58.87;99083.23;2164510;82;21350;-79
2021/01/17 13:33:56;;;;;;;50.60;22.58;;;;;;;-7.40;59.30;99101.11;2202123;81;21715;-81
2021/01/17 13:36:57;;;;;;;39.00;17.98;;;;;;;-7.51;59.21;99088.77;2163886;82;21313;-80
2021/01/17 13:39:59;;;;;;;43.75;20.23;;;;;;;-7.59;58.77;99097.12;2201786;81;21312;-78
2021/01/17 13:43:01;;;;;;;45.25;22.22;;;;;;;-7.61;58.71;99098.45;2156683;82;21282;-79
2021/01/17 13:46:03;;;;;;;44.93;22.70;;;;;;;-7.58;58.65;99107.70;2182790;82;21276;-77
2021/01/17 13:49:05;;;;;;;47.45;22.45;;;;;;;-7.52;58.49;99112.55;2160196;82;21256;-78
2021/01/17 13:52:07;;;;;;;44.27;20.65;;;;;;;-7.51;58.99;99116.30;2193597;81;21253;-75
2021/01/17 13:55:09;;;;;;;48.28;22.82;;;;;;;-7.54;58.16;99115.59;2193436;81;21158;-79